Airfield :
LOGIN :

Register | Disclaimer

   EN    FR    IT 

 










Legend :    VFR   Marginal VFR   IFR   Intensive IFR   Very Intensive IFR
Visi :
Ceiling :
>= 8 km
>= 3000ft
5 to 8 km
1000 to 3000 ft
1500m to 5 km
500 to 1000 ft
800 to 1500m
200 to 500 ft
< 800m
< 200 ft
Symbols :   Thunderstorms  Fog  Heavy snow  Heavy precipitations  Wind > 20 kt
SIGMETs :     Misc.  Thunderstorms  Icing  Turbulence  Mountain Waves  Volcanic Ashes







- Airport Elevation : 102 ft
- IATA code : EXT
- Download approach charts


EGTE - Exeter

CURRENT METAR :
  • 251150Z 26016KT 9999 FEW020CB SCT035 13/05 Q1014

EXPIRED METARs :
  • 251120Z 25014KT 9999 FEW028 FEW035CB 13/05 Q1014
  • 251050Z 25015KT 230V300 9999 VCSH SCT032 FEW035CB 13/05 Q1014
  • 251020Z 26012KT 230V290 9999 VCSH SCT032 FEW035CB 12/05 Q1014
  • 250950Z 26013KT 230V310 9999 SCT037 12/05 Q1014
  • 250920Z 25012KT 9999 SCT030 12/06 Q1014

TAF TAF EGTE
Valid from the 25 at 12:00 until the 25 at 21:00 UTC


251058Z 2512/2521 26012KT 9999 FEW025 SCT035
TEMPO 2512/2519 27015G28KT
TEMPO 2512/2516 7000 SHRA
PROB30
TEMPO 2512/2516 3000 +SHRA TSGS BKN014 BKN020CB
PROB30
TEMPO 2516/2519 7000 SHRA
No reported NOTAMs for that airfield.



MET'MAP, your aeronautical weather chart ! - Copyright ORBIFLY December 2007 - Disclaimer

ORBIFLY MET'MAP TEAM :

Programming & Development : Alexandra Zaïnal
Concept & Development : Baudouin d'Aumeries
Co-Development & Prog : Marc-Olivier Méhu
Technical & hardware support : Manuel Goepfert

Contact : metmap@orbifly.com




SOURCES & CREDITS :

   NOAA